createdAt,value
2023-01-15T00:01:03.406Z,79.10
2023-01-15T00:03:05.345Z,71.20
2023-01-15T00:05:08.002Z,80.67
2023-01-15T00:07:10.193Z,74.60
2023-01-15T00:09:16.782Z,49.93
2023-01-15T00:11:19.662Z,38.97
2023-01-15T00:13:21.809Z,38.43
2023-01-15T00:15:24.121Z,34.20
2023-01-15T00:17:26.423Z,29.30
2023-01-15T00:19:28.581Z,28.17
2023-01-15T00:21:31.323Z,27.27
2023-01-15T00:23:55.642Z,27.40
2023-01-15T00:26:16.722Z,31.63
2023-01-15T00:28:18.925Z,27.57
2023-01-15T00:30:21.612Z,25.83
2023-01-15T00:32:24.291Z,25.50
2023-01-15T00:34:27.589Z,27.40
2023-01-15T00:36:29.873Z,41.87
2023-01-15T00:38:31.955Z,41.17
2023-01-15T00:40:34.142Z,41.93
2023-01-15T00:42:41.286Z,41.53
2023-01-15T00:44:44.410Z,35.13
2023-01-15T00:46:46.710Z,41.13
2023-01-15T00:48:49.828Z,36.50
2023-01-15T00:50:51.971Z,39.00
2023-01-15T00:52:54.227Z,45.13
2023-01-15T00:54:56.232Z,36.53
2023-01-15T00:56:58.484Z,37.27
2023-01-15T00:59:04.080Z,29.30
2023-01-15T01:01:07.133Z,25.40
2023-01-15T01:03:09.572Z,22.77
2023-01-15T01:05:14.367Z,21.13
2023-01-15T01:07:18.593Z,22.27
2023-01-15T01:09:20.698Z,24.87
2023-01-15T01:11:26.992Z,23.87
2023-01-15T01:13:29.195Z,20.53
2023-01-15T01:15:34.093Z,18.87
2023-01-15T01:17:39.037Z,30.80
2023-01-15T01:19:43.641Z,21.20
2023-01-15T01:21:46.986Z,20.00
2023-01-15T01:23:49.566Z,18.70
2023-01-15T01:25:52.009Z,17.77
2023-01-15T01:27:58.161Z,18.90
2023-01-15T01:30:02.016Z,18.70
2023-01-15T01:32:04.561Z,24.73
2023-01-15T01:34:06.872Z,35.23
2023-01-15T01:36:09.299Z,28.37
2023-01-15T01:38:11.402Z,26.73
2023-01-15T01:40:14.684Z,27.53
2023-01-15T01:42:18.034Z,26.23
2023-01-15T01:44:33.126Z,24.07
2023-01-15T01:46:36.811Z,21.87
2023-01-15T01:48:38.937Z,21.73
2023-01-15T01:50:42.539Z,22.70
2023-01-15T01:52:51.885Z,25.53
2023-01-15T01:54:54.693Z,24.97
2023-01-15T01:56:57.357Z,24.37
2023-01-15T01:58:59.803Z,21.67
2023-01-15T02:01:02.531Z,26.57
2023-01-15T02:03:08.068Z,26.77
2023-01-15T02:05:14.852Z,25.10
2023-01-15T02:07:17.529Z,28.70
2023-01-15T02:09:19.719Z,37.50
2023-01-15T02:11:24.646Z,29.80
2023-01-15T02:13:35.800Z,30.33
2023-01-15T02:15:48.317Z,30.87
2023-01-15T02:18:01.956Z,23.93
2023-01-15T02:20:40.619Z,29.87
2023-01-15T02:22:54.705Z,31.97
2023-01-15T02:25:16.935Z,29.33
2023-01-15T02:27:24.871Z,34.60
2023-01-15T02:29:55.878Z,36.30
2023-01-15T02:32:02.475Z,30.07
2023-01-15T02:34:13.733Z,30.40
2023-01-15T02:36:22.009Z,23.57
2023-01-15T02:38:28.775Z,21.40
2023-01-15T02:40:58.628Z,20.03
2023-01-15T02:43:02.170Z,17.90
2023-01-15T02:45:07.899Z,18.57
2023-01-15T02:47:12.133Z,21.60
2023-01-15T02:49:17.926Z,25.57
2023-01-15T02:51:26.125Z,31.83
2023-01-15T02:53:31.585Z,25.90
2023-01-15T02:55:41.817Z,44.07
2023-01-15T02:57:47.317Z,45.57
2023-01-15T02:59:54.048Z,36.43
2023-01-15T03:02:02.920Z,33.33
2023-01-15T03:04:17.708Z,30.07
2023-01-15T03:06:32.078Z,32.40
2023-01-15T03:08:36.001Z,22.70
2023-01-15T03:10:57.182Z,21.50
2023-01-15T03:13:03.473Z,19.83
2023-01-15T03:15:40.838Z,18.63
2023-01-15T03:17:56.879Z,19.87
2023-01-15T03:20:10.105Z,17.50
2023-01-15T03:22:32.626Z,18.60
2023-01-15T03:24:40.689Z,17.83
2023-01-15T03:26:43.978Z,18.27
2023-01-15T03:28:48.680Z,17.33
2023-01-15T03:30:50.766Z,20.80
2023-01-15T03:32:54.920Z,18.90
2023-01-15T03:34:57.950Z,16.43
2023-01-15T03:36:59.882Z,18.50
2023-01-15T03:39:04.636Z,17.53
2023-01-15T03:41:39.668Z,18.20
2023-01-15T03:43:48.448Z,17.97
2023-01-15T03:45:57.106Z,19.73
2023-01-15T03:48:20.416Z,20.03
2023-01-15T03:50:43.055Z,18.10
2023-01-15T03:52:58.500Z,16.63
2023-01-15T03:55:22.148Z,17.47
2023-01-15T03:57:47.702Z,18.17
2023-01-15T03:59:54.636Z,16.60
2023-01-15T04:01:57.945Z,16.57
2023-01-15T04:04:03.146Z,15.87
2023-01-15T04:06:06.857Z,15.83
2023-01-15T04:08:11.981Z,14.73
2023-01-15T04:10:14.015Z,15.37
2023-01-15T04:12:16.549Z,15.47
2023-01-15T04:14:22.291Z,14.73
2023-01-15T04:16:31.072Z,14.63
2023-01-15T04:18:33.853Z,14.90
2023-01-15T04:20:36.236Z,15.87
2023-01-15T04:22:38.582Z,16.13
2023-01-15T04:24:40.547Z,15.87
2023-01-15T04:26:42.556Z,15.80
2023-01-15T04:28:44.419Z,14.40
2023-01-15T04:30:47.553Z,15.33
2023-01-15T04:32:50.232Z,14.23
2023-01-15T04:34:52.139Z,15.03
2023-01-15T04:36:55.047Z,14.93
2023-01-15T04:38:59.416Z,14.57
2023-01-15T04:41:20.954Z,14.13
2023-01-15T04:43:41.260Z,15.47
2023-01-15T04:45:46.634Z,14.47
2023-01-15T04:47:48.450Z,14.40
2023-01-15T04:49:50.405Z,13.87
2023-01-15T04:51:52.420Z,14.40
2023-01-15T04:53:54.501Z,14.63
2023-01-15T04:56:05.093Z,13.93
2023-01-15T04:58:07.741Z,15.43
2023-01-15T05:00:10.255Z,15.87
2023-01-15T05:02:15.046Z,15.83
2023-01-15T05:04:17.633Z,15.37
2023-01-15T05:06:19.860Z,16.40
2023-01-15T05:08:21.875Z,20.23
2023-01-15T05:10:23.831Z,20.13
2023-01-15T05:12:26.552Z,19.47
2023-01-15T05:14:28.637Z,19.10
2023-01-15T05:16:31.994Z,19.63
2023-01-15T05:18:33.993Z,19.90
2023-01-15T05:20:38.821Z,21.07
2023-01-15T05:22:40.747Z,23.17
2023-01-15T05:24:43.027Z,23.17
2023-01-15T05:26:45.516Z,22.00
2023-01-15T05:28:48.536Z,25.50
2023-01-15T05:30:50.442Z,25.33
2023-01-15T05:32:52.324Z,28.00
2023-01-15T05:34:54.480Z,29.67
2023-01-15T05:36:56.639Z,34.80
2023-01-15T05:39:02.384Z,32.40
2023-01-15T05:41:28.523Z,33.40
2023-01-15T05:43:30.456Z,32.57
2023-01-15T05:45:36.269Z,32.33
2023-01-15T05:47:38.144Z,29.80
2023-01-15T05:49:39.951Z,28.87
2023-01-15T05:51:42.642Z,28.63
2023-01-15T05:53:44.669Z,28.80
2023-01-15T05:55:46.850Z,33.37
2023-01-15T05:57:49.341Z,33.23
2023-01-15T05:59:53.419Z,38.70
2023-01-15T06:01:56.013Z,39.87
2023-01-15T06:04:00.343Z,37.13
2023-01-15T06:06:02.900Z,32.07
2023-01-15T06:08:05.008Z,29.80
2023-01-15T06:10:07.704Z,28.47
2023-01-15T06:12:09.581Z,31.87
2023-01-15T06:14:12.816Z,28.63
2023-01-15T06:16:14.789Z,25.50
2023-01-15T06:18:17.029Z,25.00
2023-01-15T06:20:18.955Z,27.17
2023-01-15T06:22:20.802Z,29.07
2023-01-15T06:24:23.185Z,30.63
2023-01-15T06:26:25.157Z,31.73
2023-01-15T06:28:27.270Z,30.33
2023-01-15T06:30:29.210Z,31.77
2023-01-15T06:32:31.087Z,32.40
2023-01-15T06:34:33.097Z,36.73
2023-01-15T06:36:35.281Z,38.00
2023-01-15T06:38:38.007Z,41.50
2023-01-15T06:40:40.444Z,36.60
2023-01-15T06:43:01.114Z,26.37
2023-01-15T06:45:21.690Z,25.17
2023-01-15T06:47:24.833Z,26.30
2023-01-15T06:49:26.880Z,26.07
2023-01-15T06:51:31.051Z,25.50
2023-01-15T06:53:33.113Z,24.73
2023-01-15T06:55:35.183Z,22.53
2023-01-15T06:57:40.048Z,25.20
2023-01-15T06:59:41.910Z,26.07
2023-01-15T07:01:43.731Z,25.60
2023-01-15T07:03:45.701Z,24.53
2023-01-15T07:05:47.999Z,26.97
2023-01-15T07:07:49.837Z,24.60
2023-01-15T07:09:51.798Z,22.43
2023-01-15T07:11:53.658Z,21.70
2023-01-15T07:14:05.956Z,21.60
2023-01-15T07:16:27.068Z,21.07
2023-01-15T07:18:30.894Z,23.20
2023-01-15T07:20:32.947Z,24.60
2023-01-15T07:22:34.782Z,27.20
2023-01-15T07:24:36.673Z,24.60
2023-01-15T07:26:39.753Z,23.17
2023-01-15T07:28:41.938Z,20.87
2023-01-15T07:30:43.881Z,20.33
2023-01-15T07:32:45.773Z,19.87
2023-01-15T07:34:47.621Z,19.63
2023-01-15T07:36:49.536Z,18.30
2023-01-15T07:38:51.582Z,19.17
2023-01-15T07:41:15.182Z,19.10
2023-01-15T07:43:35.735Z,17.17
2023-01-15T07:46:05.736Z,16.07
2023-01-15T07:48:29.324Z,15.70
2023-01-15T07:50:31.208Z,17.10
2023-01-15T07:52:33.212Z,15.93
2023-01-15T07:54:35.106Z,15.53
2023-01-15T07:56:36.971Z,16.23
2023-01-15T07:58:39.242Z,16.57
2023-01-15T08:00:41.982Z,16.07
2023-01-15T08:02:46.064Z,17.60
2023-01-15T08:04:48.132Z,18.27
2023-01-15T08:06:50.145Z,19.73
2023-01-15T08:08:52.152Z,19.73
2023-01-15T08:11:23.362Z,18.57
2023-01-15T08:13:43.951Z,17.63
2023-01-15T08:15:46.695Z,18.27
2023-01-15T08:17:50.459Z,19.33
2023-01-15T08:19:52.372Z,17.33
2023-01-15T08:21:54.475Z,17.40
2023-01-15T08:23:56.412Z,20.33
2023-01-15T08:26:01.476Z,18.23
2023-01-15T08:28:03.814Z,18.00
2023-01-15T08:30:07.778Z,15.87
2023-01-15T08:32:09.914Z,16.77
2023-01-15T08:34:12.189Z,18.03
2023-01-15T08:36:16.029Z,17.83
2023-01-15T08:38:17.990Z,16.97
2023-01-15T08:40:20.115Z,16.77
2023-01-15T08:42:22.059Z,17.70
2023-01-15T08:44:24.913Z,17.03
2023-01-15T08:46:27.017Z,17.70
2023-01-15T08:48:32.038Z,17.87
2023-01-15T08:50:33.944Z,15.97
2023-01-15T08:52:36.377Z,15.77
2023-01-15T08:54:38.455Z,15.83
2023-01-15T08:56:40.488Z,15.97
2023-01-15T08:58:43.131Z,14.97
2023-01-15T09:00:45.089Z,14.93
2023-01-15T09:02:49.276Z,13.20
2023-01-15T09:04:52.940Z,11.90
2023-01-15T09:06:55.008Z,13.27
2023-01-15T09:08:57.175Z,12.63
2023-01-15T09:11:01.568Z,12.90
2023-01-15T09:13:04.578Z,11.70
2023-01-15T09:15:07.057Z,12.07
2023-01-15T09:17:11.883Z,11.37
2023-01-15T09:19:13.732Z,11.73
2023-01-15T09:21:15.854Z,11.60
2023-01-15T09:23:17.929Z,11.50
2023-01-15T09:25:20.358Z,11.20
2023-01-15T09:27:22.298Z,12.63
2023-01-15T09:29:24.097Z,12.30
2023-01-15T09:31:29.081Z,12.20
2023-01-15T09:33:31.243Z,11.27
2023-01-15T09:35:33.221Z,12.23
2023-01-15T09:37:35.366Z,14.03
2023-01-15T09:39:40.899Z,12.50
2023-01-15T09:42:10.321Z,13.17
2023-01-15T09:44:43.585Z,12.37
2023-01-15T09:47:07.043Z,13.73
2023-01-15T09:49:51.813Z,12.80
2023-01-15T09:52:14.362Z,13.77
2023-01-15T09:54:19.381Z,12.77
2023-01-15T09:56:25.636Z,12.80
2023-01-15T09:58:37.224Z,12.83
2023-01-15T10:00:43.869Z,10.37
2023-01-15T10:02:53.228Z,11.07
2023-01-15T10:05:00.325Z,12.10
2023-01-15T10:07:08.623Z,12.70
2023-01-15T10:09:20.590Z,11.37
2023-01-15T10:11:54.093Z,12.90
2023-01-15T10:14:26.492Z,15.70
2023-01-15T10:16:33.865Z,13.10
2023-01-15T10:18:36.076Z,11.13
2023-01-15T10:21:08.454Z,10.30
2023-01-15T10:23:13.573Z,9.27
2023-01-15T10:25:17.753Z,12.50
2023-01-15T10:27:23.174Z,11.90
2023-01-15T10:29:50.439Z,12.93
2023-01-15T10:31:55.130Z,12.73
2023-01-15T10:34:43.954Z,12.73
2023-01-15T10:37:08.523Z,14.53
2023-01-15T10:39:58.594Z,20.00
2023-01-15T10:42:14.919Z,12.93
2023-01-15T10:44:27.248Z,39.87
2023-01-15T10:46:33.882Z,20.67
2023-01-15T10:48:43.016Z,12.83
2023-01-15T10:50:46.290Z,12.70
2023-01-15T10:53:13.416Z,11.93
2023-01-15T10:55:29.551Z,10.90
2023-01-15T10:57:40.322Z,9.80
2023-01-15T10:59:56.205Z,10.90
2023-01-15T11:02:00.288Z,12.10
2023-01-15T11:04:02.524Z,10.27
2023-01-15T11:06:06.801Z,9.60
2023-01-15T11:09:08.769Z,9.70
2023-01-15T11:10:43.894Z,8.93
2023-01-15T11:13:09.412Z,10.43
2023-01-15T11:15:39.844Z,9.90
2023-01-15T11:18:05.583Z,14.17
2023-01-15T11:20:28.163Z,9.93
2023-01-15T11:22:31.075Z,8.90
2023-01-15T11:24:33.004Z,9.90
2023-01-15T11:26:35.207Z,8.30
2023-01-15T11:28:40.915Z,8.60
2023-01-15T11:30:45.412Z,7.43
2023-01-15T11:32:56.958Z,7.33
2023-01-15T11:35:09.265Z,13.00
2023-01-15T11:37:11.670Z,16.57
2023-01-15T11:39:24.643Z,13.13
2023-01-15T11:41:46.382Z,10.23
2023-01-15T11:44:17.334Z,8.57
2023-01-15T11:46:46.828Z,6.90
2023-01-15T11:49:07.458Z,8.33
2023-01-15T11:51:12.485Z,9.57
2023-01-15T11:53:23.030Z,9.53
2023-01-15T11:55:27.186Z,9.40
2023-01-15T11:57:32.835Z,9.57
2023-01-15T11:59:37.103Z,8.90
2023-01-15T12:01:49.891Z,8.43
2023-01-15T12:03:53.257Z,7.90
2023-01-15T12:06:05.736Z,7.50
2023-01-15T12:08:33.947Z,8.50
2023-01-15T12:11:17.494Z,8.10
2023-01-15T12:13:52.581Z,9.77
2023-01-15T12:16:36.218Z,9.57
2023-01-15T12:19:22.826Z,8.77
2023-01-15T12:21:33.631Z,7.93
2023-01-15T12:23:44.759Z,8.00
2023-01-15T12:26:05.577Z,7.60
2023-01-15T12:28:16.758Z,8.50
2023-01-15T12:30:56.271Z,7.77
2023-01-15T12:33:26.474Z,8.13
2023-01-15T12:36:00.352Z,7.23
2023-01-15T12:38:20.460Z,8.27
2023-01-15T12:40:29.185Z,7.73
2023-01-15T12:42:51.831Z,7.83
2023-01-15T12:45:06.170Z,6.82
2023-01-15T12:47:16.447Z,8.10
2023-01-15T12:49:37.221Z,7.45
2023-01-15T12:51:52.492Z,6.90
2023-01-15T12:54:11.430Z,7.72
2023-01-15T12:56:13.307Z,8.20
2023-01-15T12:58:31.130Z,7.83
2023-01-15T13:00:39.401Z,8.27
2023-01-15T13:02:57.389Z,7.37
2023-01-15T13:05:19.434Z,9.30
2023-01-15T13:07:36.145Z,8.33
2023-01-15T13:10:01.716Z,7.93
2023-01-15T13:12:04.057Z,7.30
2023-01-15T13:14:16.656Z,7.60
2023-01-15T13:16:44.367Z,6.63
2023-01-15T13:19:16.654Z,6.37
2023-01-15T13:21:20.535Z,6.93
2023-01-15T13:23:54.845Z,6.77
2023-01-15T13:26:07.093Z,21.52
2023-01-15T13:28:30.014Z,22.37
2023-01-15T13:30:52.477Z,36.60
2023-01-15T13:33:04.953Z,44.22
2023-01-15T13:35:28.312Z,42.47
2023-01-15T13:37:40.668Z,39.47
2023-01-15T13:39:45.344Z,51.57
2023-01-15T13:42:12.376Z,50.77
2023-01-15T13:44:23.140Z,51.73
2023-01-15T13:46:25.119Z,61.67
2023-01-15T13:48:35.202Z,60.30
2023-01-15T13:50:52.316Z,54.80
2023-01-15T13:53:12.976Z,50.17
2023-01-15T13:55:37.520Z,60.60
2023-01-15T13:57:41.583Z,62.43
2023-01-15T13:59:44.824Z,61.88
2023-01-15T14:01:47.106Z,63.83
2023-01-15T14:04:07.174Z,67.60
2023-01-15T14:06:10.011Z,52.67
2023-01-15T14:08:17.170Z,48.30
2023-01-15T14:10:22.299Z,47.53
2023-01-15T14:12:48.857Z,26.88
2023-01-15T14:15:23.928Z,27.60
2023-01-15T14:17:44.496Z,24.90
2023-01-15T14:20:04.793Z,23.73
2023-01-15T14:22:31.430Z,19.27
2023-01-15T14:25:00.800Z,18.00
2023-01-15T14:27:23.976Z,16.13
2023-01-15T14:30:04.550Z,16.80
2023-01-15T14:32:17.225Z,11.10
2023-01-15T14:34:28.525Z,12.53
2023-01-15T14:36:38.375Z,11.77
2023-01-15T14:38:50.434Z,12.80
2023-01-15T14:41:00.155Z,11.77
2023-01-15T14:43:10.322Z,10.57
2023-01-15T14:45:12.181Z,9.90
2023-01-15T14:47:29.443Z,10.80
2023-01-15T14:49:42.777Z,9.37
2023-01-15T14:51:50.273Z,8.23
2023-01-15T14:53:56.097Z,9.03
2023-01-15T14:56:20.179Z,8.83
2023-01-15T14:58:31.192Z,8.43
2023-01-15T15:00:37.963Z,7.47
2023-01-15T15:02:44.467Z,8.60
2023-01-15T15:04:54.151Z,8.53
2023-01-15T15:06:55.894Z,9.97
2023-01-15T15:09:04.940Z,9.87
2023-01-15T15:11:36.870Z,9.70
2023-01-15T15:13:46.855Z,10.73
2023-01-15T15:16:07.666Z,11.10
2023-01-15T15:18:12.536Z,11.63
2023-01-15T15:20:19.288Z,10.77
2023-01-15T15:22:25.009Z,12.00
2023-01-15T15:24:31.453Z,12.07
2023-01-15T15:26:35.866Z,13.37
2023-01-15T15:28:37.825Z,12.53
2023-01-15T15:30:46.188Z,13.20
2023-01-15T15:32:48.228Z,14.77
2023-01-15T15:34:53.039Z,15.60
2023-01-15T15:36:58.567Z,15.50
2023-01-15T15:39:19.375Z,17.90
2023-01-15T15:41:44.892Z,17.77
2023-01-15T15:44:12.741Z,21.47
2023-01-15T15:46:52.006Z,20.37
2023-01-15T15:48:58.045Z,20.37
2023-01-15T15:51:00.292Z,22.97
2023-01-15T15:53:06.979Z,23.93
2023-01-15T15:55:16.273Z,24.03
2023-01-15T15:57:20.038Z,24.97
2023-01-15T15:59:27.829Z,27.00
2023-01-15T16:01:29.921Z,25.90
2023-01-15T16:03:33.289Z,25.23
2023-01-15T16:05:35.965Z,28.23
2023-01-15T16:07:37.946Z,26.90
2023-01-15T16:09:42.646Z,24.43
2023-01-15T16:11:44.741Z,25.57
2023-01-15T16:13:49.836Z,26.03
2023-01-15T16:15:56.205Z,24.17
2023-01-15T16:18:03.550Z,24.13
2023-01-15T16:20:12.725Z,28.10
2023-01-15T16:22:18.041Z,30.20
2023-01-15T16:24:26.317Z,32.90
2023-01-15T16:26:38.966Z,33.97
2023-01-15T16:28:49.331Z,34.27
2023-01-15T16:31:05.425Z,34.27
2023-01-15T16:33:08.239Z,36.77
2023-01-15T16:35:21.082Z,41.40
2023-01-15T16:37:30.809Z,39.57
2023-01-15T16:39:32.701Z,40.87
2023-01-15T16:41:42.423Z,37.93
2023-01-15T16:44:05.954Z,39.00
2023-01-15T16:46:07.905Z,44.17
2023-01-15T16:48:24.565Z,45.87
2023-01-15T16:50:29.904Z,46.30
2023-01-15T16:52:51.281Z,47.50
2023-01-15T16:54:53.426Z,49.73
2023-01-15T16:56:57.145Z,49.87
2023-01-15T16:58:59.080Z,57.97
2023-01-15T17:01:02.491Z,47.43
2023-01-15T17:03:10.782Z,43.23
2023-01-15T17:05:23.830Z,44.53
2023-01-15T17:07:35.583Z,50.53
2023-01-15T17:09:38.169Z,52.63
2023-01-15T17:11:40.978Z,53.67
2023-01-15T17:13:45.284Z,57.57
2023-01-15T17:15:47.699Z,52.00
2023-01-15T17:17:51.394Z,47.47
2023-01-15T17:19:56.395Z,40.60
2023-01-15T17:21:58.461Z,43.27
2023-01-15T17:24:00.368Z,44.57
2023-01-15T17:26:04.430Z,37.40
2023-01-15T17:28:08.289Z,32.97
2023-01-15T17:30:12.758Z,32.97
2023-01-15T17:32:17.825Z,39.10
2023-01-15T17:34:23.553Z,45.10
2023-01-15T17:36:26.399Z,60.33
2023-01-15T17:38:28.283Z,67.47
2023-01-15T17:40:30.771Z,55.57
2023-01-15T17:42:32.785Z,53.60
2023-01-15T17:44:34.722Z,45.70
2023-01-15T17:46:37.165Z,41.20
2023-01-15T17:48:40.175Z,34.60
2023-01-15T17:50:44.277Z,29.70
2023-01-15T17:52:46.914Z,27.70
2023-01-15T17:55:09.869Z,32.67
2023-01-15T17:57:30.815Z,32.07
2023-01-15T17:59:51.496Z,33.17
2023-01-15T18:02:12.588Z,37.73
2023-01-15T18:04:50.715Z,40.27
2023-01-15T18:06:53.903Z,48.67
2023-01-15T18:08:58.803Z,43.63
2023-01-15T18:11:00.940Z,43.63
2023-01-15T18:13:07.761Z,39.20
2023-01-15T18:15:10.260Z,33.43
2023-01-15T18:17:12.108Z,74.03
2023-01-15T18:19:14.336Z,60.30
2023-01-15T18:21:16.772Z,58.30
2023-01-15T18:23:18.824Z,66.83
2023-01-15T18:25:20.783Z,63.60
2023-01-15T18:27:23.240Z,62.40
2023-01-15T18:29:25.380Z,60.90
2023-01-15T18:31:27.632Z,63.10
2023-01-15T18:33:30.317Z,70.40
2023-01-15T18:35:32.611Z,68.53
2023-01-15T18:37:34.618Z,58.93
2023-01-15T18:39:37.417Z,56.90
2023-01-15T18:41:40.520Z,56.50
2023-01-15T18:44:00.684Z,52.03
2023-01-15T18:46:25.164Z,49.20
2023-01-15T18:48:27.729Z,51.67
2023-01-15T18:50:32.044Z,50.50
2023-01-15T18:52:50.240Z,56.23
2023-01-15T18:54:52.306Z,52.80
2023-01-15T18:56:54.174Z,51.13
2023-01-15T18:58:56.857Z,50.50
2023-01-15T19:00:59.159Z,46.90
2023-01-15T19:03:01.031Z,42.93
2023-01-15T19:05:03.086Z,45.20
2023-01-15T19:07:04.936Z,40.20
2023-01-15T19:09:08.617Z,40.03
2023-01-15T19:11:13.707Z,34.90
2023-01-15T19:13:18.195Z,41.97
2023-01-15T19:15:39.485Z,41.20
2023-01-15T19:18:02.889Z,40.90
2023-01-15T19:20:05.970Z,40.87
2023-01-15T19:22:28.079Z,45.67
2023-01-15T19:24:30.484Z,46.53
2023-01-15T19:26:32.395Z,49.30
2023-01-15T19:28:34.310Z,47.20
2023-01-15T19:30:38.860Z,46.07
2023-01-15T19:32:40.934Z,49.37
2023-01-15T19:34:42.749Z,48.57
2023-01-15T19:36:44.961Z,45.80
2023-01-15T19:38:46.763Z,57.57
2023-01-15T19:40:50.288Z,53.73
2023-01-15T19:43:12.219Z,57.97
2023-01-15T19:45:33.496Z,54.63
2023-01-15T19:47:57.156Z,53.90
2023-01-15T19:50:17.708Z,56.00
2023-01-15T19:52:34.897Z,53.60
2023-01-15T19:54:55.536Z,56.03
2023-01-15T19:56:57.501Z,57.90
2023-01-15T19:58:59.385Z,52.90
2023-01-15T20:01:02.104Z,52.37
2023-01-15T20:03:05.348Z,50.40
2023-01-15T20:05:08.976Z,48.77
2023-01-15T20:07:11.620Z,44.17
2023-01-15T20:09:13.702Z,43.13
2023-01-15T20:11:15.969Z,40.47
2023-01-15T20:13:41.487Z,40.57
2023-01-15T20:15:45.872Z,46.00
2023-01-15T20:17:47.903Z,44.93
2023-01-15T20:19:49.967Z,46.13
2023-01-15T20:21:51.714Z,39.10
2023-01-15T20:23:53.548Z,36.27
2023-01-15T20:26:01.586Z,32.90
2023-01-15T20:28:03.445Z,28.40
2023-01-15T20:30:09.299Z,27.17
2023-01-15T20:32:11.239Z,26.60
2023-01-15T20:34:13.061Z,26.80
2023-01-15T20:36:15.436Z,27.07
2023-01-15T20:38:19.095Z,26.57
2023-01-15T20:40:23.864Z,27.57
2023-01-15T20:42:46.350Z,26.83
2023-01-15T20:44:55.348Z,29.97
2023-01-15T20:46:57.449Z,28.90
2023-01-15T20:49:17.673Z,28.67
2023-01-15T20:51:20.114Z,28.30
2023-01-15T20:53:21.945Z,27.00
2023-01-15T20:55:24.822Z,34.80
2023-01-15T20:57:26.664Z,41.53
2023-01-15T20:59:28.870Z,37.77
2023-01-15T21:01:30.904Z,45.53
2023-01-15T21:03:32.835Z,45.03
2023-01-15T21:05:34.767Z,56.30
2023-01-15T21:07:37.925Z,73.40
2023-01-15T21:09:39.827Z,55.43
2023-01-15T21:11:42.483Z,53.67
2023-01-15T21:13:46.031Z,38.67
2023-01-15T21:15:58.207Z,46.13
2023-01-15T21:18:00.360Z,45.67
2023-01-15T21:20:02.525Z,34.47
2023-01-15T21:22:04.667Z,35.77
2023-01-15T21:24:06.863Z,30.27
2023-01-15T21:26:08.970Z,31.53
2023-01-15T21:28:11.812Z,36.33
2023-01-15T21:30:15.828Z,49.30
2023-01-15T21:32:17.765Z,101.03
2023-01-15T21:34:20.556Z,90.43
2023-01-15T21:36:23.075Z,78.57
2023-01-15T21:38:25.246Z,62.87
2023-01-15T21:40:27.256Z,53.83
2023-01-15T21:42:55.628Z,46.97
2023-01-15T21:44:57.543Z,85.67
2023-01-15T21:47:02.061Z,84.57
2023-01-15T21:49:05.831Z,68.17
2023-01-15T21:51:07.839Z,45.67
2023-01-15T21:53:10.120Z,37.60
2023-01-15T21:55:13.314Z,40.23
2023-01-15T21:57:16.007Z,108.20
2023-01-15T21:59:20.114Z,112.97
2023-01-15T22:01:23.364Z,94.93
2023-01-15T22:03:25.548Z,62.83
2023-01-15T22:05:27.529Z,44.00
2023-01-15T22:07:29.899Z,37.33
2023-01-15T22:09:31.755Z,34.63
2023-01-15T22:11:45.837Z,36.63
2023-01-15T22:13:51.209Z,28.40
2023-01-15T22:15:54.575Z,27.53
2023-01-15T22:17:57.752Z,39.57
2023-01-15T22:20:00.409Z,46.37
2023-01-15T22:22:13.111Z,38.93
2023-01-15T22:24:15.437Z,30.20
2023-01-15T22:26:22.163Z,29.30
2023-01-15T22:28:24.489Z,28.00
2023-01-15T22:30:26.440Z,25.37
2023-01-15T22:32:28.579Z,25.03
2023-01-15T22:34:31.283Z,26.43
2023-01-15T22:36:33.515Z,33.83
2023-01-15T22:38:35.521Z,36.07
2023-01-15T22:40:37.569Z,42.40
2023-01-15T22:42:42.096Z,42.00
2023-01-15T22:44:45.214Z,38.43
2023-01-15T22:46:50.474Z,32.80
2023-01-15T22:48:52.812Z,30.43
2023-01-15T22:50:54.764Z,29.00
2023-01-15T22:52:56.630Z,26.93
2023-01-15T22:54:58.513Z,25.87
2023-01-15T22:57:00.920Z,27.33
2023-01-15T22:59:03.004Z,28.03
2023-01-15T23:01:05.683Z,39.37
2023-01-15T23:03:08.169Z,38.73
2023-01-15T23:05:11.867Z,41.40
2023-01-15T23:07:14.093Z,33.77
2023-01-15T23:09:16.081Z,34.30
2023-01-15T23:11:18.176Z,32.40
2023-01-15T23:13:21.191Z,33.67
2023-01-15T23:15:23.213Z,37.50
2023-01-15T23:17:25.886Z,35.03
2023-01-15T23:19:28.339Z,32.60
2023-01-15T23:21:30.715Z,33.37
2023-01-15T23:23:33.889Z,30.43
2023-01-15T23:25:35.985Z,30.23
2023-01-15T23:27:38.289Z,33.17
2023-01-15T23:29:40.956Z,25.63
2023-01-15T23:31:42.982Z,21.40
2023-01-15T23:33:45.433Z,22.77
2023-01-15T23:35:47.601Z,20.50
2023-01-15T23:37:49.857Z,21.30
2023-01-15T23:39:52.205Z,19.97
2023-01-15T23:42:12.560Z,15.63
2023-01-15T23:44:38.919Z,11.73
2023-01-15T23:46:41.259Z,10.00
2023-01-15T23:48:43.459Z,29.50
2023-01-15T23:50:45.421Z,30.90
2023-01-15T23:52:47.424Z,31.23
2023-01-15T23:54:49.412Z,32.10
2023-01-15T23:56:51.738Z,24.80
2023-01-15T23:58:54.006Z,20.20
